Time;durP1;ratioP1;P1;durP2;ratioP2;P2;SDS_P1;SDS_P2;PMS_P1;PMS_P2;Temp;Humidity;BMP_temperature;BMP_pressure;BME280_temperature;BME280_humidity;BME280_pressure;Samples;Min_cycle;Max_cycle;Signal;HPM_P1;HPM_P2
2021/06/24 00:00:51;;;;;;;48.63;23.80;;;;;;;;;;4970053;28;20058;-81
2021/06/24 00:03:17;;;;;;;44.88;22.13;;;;;;;;;;4969732;28;20089;-80
2021/06/24 00:05:43;;;;;;;52.47;25.83;;;;;;;;;;4968533;28;20031;-79
2021/06/24 00:08:10;;;;;;;68.07;28.10;;;;;;;;;;4970861;28;20029;-79
2021/06/24 00:10:37;;;;;;;61.60;27.70;;;;;;;;;;4970764;28;20027;-78
2021/06/24 00:13:04;;;;;;;41.25;22.88;;;;;;;;;;4968685;28;20027;-80
2021/06/24 00:15:30;;;;;;;41.55;20.40;;;;;;;;;;4969250;28;20027;-79
2021/06/24 00:17:56;;;;;;;37.95;20.13;;;;;;;;;;4989766;28;20046;-80
2021/06/24 00:20:22;;;;;;;37.55;19.67;;;;;;;;;;4980194;28;20054;-78
2021/06/24 00:22:47;;;;;;;37.03;20.55;;;;;;;;;;4982132;28;20463;-79
2021/06/24 00:25:14;;;;;;;41.95;19.48;;;;;;;;;;4978793;28;20078;-76
2021/06/24 00:27:40;;;;;;;43.03;21.20;;;;;;;;;;4990723;28;20505;-79
2021/06/24 00:30:07;;;;;;;36.15;18.88;;;;;;;;;;4988352;28;20022;-78
2021/06/24 00:32:32;;;;;;;35.85;17.92;;;;;;;;;;4973165;28;20033;-77
2021/06/24 00:35:02;;;;;;;34.88;17.45;;;;;;;;;;4988414;28;20030;-78
2021/06/24 00:37:28;;;;;;;30.30;15.77;;;;;;;;;;4973099;28;20027;-78
2021/06/24 00:39:54;;;;;;;29.98;15.45;;;;;;;;;;4972978;28;20042;-78
2021/06/24 00:42:20;;;;;;;26.48;15.07;;;;;;;;;;4972856;28;20385;-77
2021/06/24 00:44:46;;;;;;;24.58;14.75;;;;;;;;;;4973335;28;20042;-76
2021/06/24 00:47:11;;;;;;;26.25;16.23;;;;;;;;;;4988068;28;20056;-76
2021/06/24 00:49:37;;;;;;;26.48;16.60;;;;;;;;;;4973985;28;20515;-77
2021/06/24 00:52:03;;;;;;;30.20;16.35;;;;;;;;;;4972723;28;20023;-76
2021/06/24 00:54:28;;;;;;;28.25;17.70;;;;;;;;;;4972111;28;20082;-76
2021/06/24 00:56:54;;;;;;;31.05;17.48;;;;;;;;;;4972352;28;20406;-77
2021/06/24 00:59:21;;;;;;;33.50;18.48;;;;;;;;;;4987308;28;20278;-77
2021/06/24 01:01:46;;;;;;;33.88;16.92;;;;;;;;;;4972458;28;20031;-77
2021/06/24 01:04:12;;;;;;;33.92;18.52;;;;;;;;;;4971178;28;20030;-76
2021/06/24 01:06:37;;;;;;;30.17;16.45;;;;;;;;;;4987472;28;20126;-77
2021/06/24 01:09:03;;;;;;;25.05;15.60;;;;;;;;;;4971187;28;20026;-77
2021/06/24 01:11:29;;;;;;;31.95;16.92;;;;;;;;;;4986727;28;20506;-77
2021/06/24 01:13:54;;;;;;;30.90;17.75;;;;;;;;;;4972229;28;20066;-77
2021/06/24 01:16:20;;;;;;;32.67;18.10;;;;;;;;;;4972077;28;20050;-77
2021/06/24 01:18:46;;;;;;;28.63;16.45;;;;;;;;;;4972250;28;20505;-77
2021/06/24 01:21:12;;;;;;;30.67;16.90;;;;;;;;;;4987086;28;20030;-77
2021/06/24 01:23:42;;;;;;;32.88;17.98;;;;;;;;;;4986691;28;20049;-77
2021/06/24 01:26:09;;;;;;;34.00;16.80;;;;;;;;;;4972026;28;20463;-80
2021/06/24 01:28:35;;;;;;;26.17;14.25;;;;;;;;;;4972037;28;20125;-80
2021/06/24 01:31:01;;;;;;;25.23;14.50;;;;;;;;;;4986534;28;20589;-80
2021/06/24 01:33:26;;;;;;;23.13;13.02;;;;;;;;;;4971686;28;20026;-79
2021/06/24 01:36:00;;;;;;;22.45;13.20;;;;;;;;;;4970971;28;20424;-80
2021/06/24 01:38:26;;;;;;;21.27;12.02;;;;;;;;;;4971774;28;20142;-77
2021/06/24 01:40:52;;;;;;;22.40;13.15;;;;;;;;;;4986690;28;20027;-78
2021/06/24 01:43:18;;;;;;;19.30;11.13;;;;;;;;;;4970460;28;20557;-77
2021/06/24 01:45:49;;;;;;;14.30;10.40;;;;;;;;;;4986876;28;20042;-76
2021/06/24 01:48:15;;;;;;;17.33;10.93;;;;;;;;;;4986688;28;20113;-79
2021/06/24 01:50:41;;;;;;;15.50;9.43;;;;;;;;;;4971535;28;20102;-78
2021/06/24 01:53:07;;;;;;;11.82;9.00;;;;;;;;;;4971340;28;20054;-77
2021/06/24 01:55:33;;;;;;;15.52;9.73;;;;;;;;;;4971374;28;20031;-78
2021/06/24 01:58:06;;;;;;;20.77;11.18;;;;;;;;;;4970268;28;20164;-77
2021/06/24 02:00:32;;;;;;;22.95;11.48;;;;;;;;;;4986191;28;20041;-78
2021/06/24 02:02:58;;;;;;;16.55;10.80;;;;;;;;;;4986384;28;20126;-77
2021/06/24 02:05:23;;;;;;;18.17;10.85;;;;;;;;;;4971222;28;20422;-78
2021/06/24 02:07:49;;;;;;;16.83;10.20;;;;;;;;;;4971445;28;20031;-77
2021/06/24 02:10:16;;;;;;;19.67;11.38;;;;;;;;;;4972165;28;20022;-77
2021/06/24 02:12:42;;;;;;;17.77;10.88;;;;;;;;;;4973916;28;20086;-76
2021/06/24 02:15:11;;;;;;;14.85;10.07;;;;;;;;;;4988210;28;20118;-78
2021/06/24 02:17:37;;;;;;;18.30;11.15;;;;;;;;;;4973389;28;20023;-78
2021/06/24 02:20:09;;;;;;;17.13;10.45;;;;;;;;;;4970312;28;20031;-77
2021/06/24 02:22:34;;;;;;;16.92;10.98;;;;;;;;;;4985565;28;20439;-76
2021/06/24 02:25:00;;;;;;;16.88;11.10;;;;;;;;;;4986067;28;20036;-77
2021/06/24 02:27:26;;;;;;;22.63;12.15;;;;;;;;;;4985660;28;20751;-78
2021/06/24 02:29:52;;;;;;;19.80;11.32;;;;;;;;;;4970988;28;20050;-77
2021/06/24 02:32:18;;;;;;;20.58;12.32;;;;;;;;;;4971095;28;20018;-78
2021/06/24 02:34:45;;;;;;;25.52;12.70;;;;;;;;;;4971197;28;20441;-77
2021/06/24 02:37:11;;;;;;;25.30;13.15;;;;;;;;;;4971179;28;20034;-77
2021/06/24 02:39:36;;;;;;;22.35;12.50;;;;;;;;;;4969446;28;20019;-78
2021/06/24 02:42:03;;;;;;;23.83;13.55;;;;;;;;;;4969509;28;20423;-78
2021/06/24 02:44:29;;;;;;;22.25;12.95;;;;;;;;;;4985070;28;20049;-77
2021/06/24 02:46:54;;;;;;;18.92;11.27;;;;;;;;;;4970868;28;20456;-77
2021/06/24 02:49:20;;;;;;;17.63;11.77;;;;;;;;;;4970916;28;20386;-76
2021/06/24 02:51:48;;;;;;;17.13;12.05;;;;;;;;;;5001879;28;20364;-77
2021/06/24 02:54:18;;;;;;;19.15;11.75;;;;;;;;;;4970421;28;20061;-76
2021/06/24 02:56:44;;;;;;;19.08;11.82;;;;;;;;;;4970313;28;20035;-78
2021/06/24 02:59:10;;;;;;;20.55;12.68;;;;;;;;;;4970510;28;20031;-77
2021/06/24 03:01:38;;;;;;;24.17;13.30;;;;;;;;;;4972879;28;20041;-77
2021/06/24 03:04:05;;;;;;;28.45;14.65;;;;;;;;;;4989925;28;20124;-77
2021/06/24 03:06:30;;;;;;;27.35;15.38;;;;;;;;;;4989681;28;20106;-78
2021/06/24 03:08:56;;;;;;;31.15;14.70;;;;;;;;;;5004833;28;20125;-77
2021/06/24 03:11:22;;;;;;;24.05;13.63;;;;;;;;;;4988151;28;20051;-77
2021/06/24 03:13:49;;;;;;;26.70;12.95;;;;;;;;;;4989876;28;20486;-77
2021/06/24 03:16:15;;;;;;;25.63;12.88;;;;;;;;;;4989855;28;20347;-76
2021/06/24 03:18:41;;;;;;;19.23;12.60;;;;;;;;;;4989863;28;20062;-77
2021/06/24 03:21:06;;;;;;;20.70;12.18;;;;;;;;;;4989995;28;20475;-77
2021/06/24 03:23:32;;;;;;;20.27;12.20;;;;;;;;;;4987885;28;20056;-78
2021/06/24 03:25:57;;;;;;;19.98;12.48;;;;;;;;;;4989470;28;20030;-77
2021/06/24 03:28:23;;;;;;;24.88;15.75;;;;;;;;;;4989519;28;20030;-77
2021/06/24 03:30:48;;;;;;;21.67;13.90;;;;;;;;;;5004447;28;20420;-77
2021/06/24 03:33:14;;;;;;;20.38;12.25;;;;;;;;;;4988364;28;20034;-76
2021/06/24 03:35:40;;;;;;;30.10;13.98;;;;;;;;;;4989344;28;20065;-76
2021/06/24 03:38:05;;;;;;;31.77;15.75;;;;;;;;;;4988350;28;20034;-76
2021/06/24 03:40:31;;;;;;;33.05;15.20;;;;;;;;;;4989427;28;20063;-76
2021/06/24 03:42:56;;;;;;;45.67;19.30;;;;;;;;;;4989978;28;20053;-76
2021/06/24 03:45:22;;;;;;;43.42;18.23;;;;;;;;;;4989167;28;20037;-77
2021/06/24 03:47:48;;;;;;;33.85;17.58;;;;;;;;;;4989439;28;20113;-77
2021/06/24 03:50:14;;;;;;;33.83;18.65;;;;;;;;;;4989647;28;20106;-77
2021/06/24 03:52:40;;;;;;;33.63;18.27;;;;;;;;;;5004157;28;20033;-77
2021/06/24 03:55:07;;;;;;;27.05;16.33;;;;;;;;;;4992213;28;20042;-75
2021/06/24 03:57:33;;;;;;;26.77;16.50;;;;;;;;;;5007901;28;20034;-77
2021/06/24 03:59:58;;;;;;;26.02;15.60;;;;;;;;;;5008140;28;20031;-77
2021/06/24 04:02:24;;;;;;;27.85;17.17;;;;;;;;;;4991827;28;20041;-78
2021/06/24 04:04:50;;;;;;;30.67;17.33;;;;;;;;;;4993068;28;20529;-77
2021/06/24 04:07:16;;;;;;;26.05;19.00;;;;;;;;;;5008304;28;20026;-77
2021/06/24 04:09:41;;;;;;;24.10;15.63;;;;;;;;;;4993074;28;20046;-77
2021/06/24 04:12:07;;;;;;;24.52;17.15;;;;;;;;;;5007768;28;20042;-76
2021/06/24 04:14:33;;;;;;;30.75;18.00;;;;;;;;;;5007582;28;20030;-77
2021/06/24 04:16:58;;;;;;;28.40;18.55;;;;;;;;;;4992705;28;20027;-77
2021/06/24 04:19:24;;;;;;;29.45;18.42;;;;;;;;;;5007320;28;20042;-77
2021/06/24 04:21:49;;;;;;;28.52;18.13;;;;;;;;;;4992745;28;20034;-76
2021/06/24 04:24:18;;;;;;;31.65;19.65;;;;;;;;;;4991529;28;20042;-77
2021/06/24 04:26:44;;;;;;;24.77;17.55;;;;;;;;;;5007694;28;20026;-77
2021/06/24 04:29:09;;;;;;;32.83;21.20;;;;;;;;;;4991433;28;20034;-78
2021/06/24 04:31:35;;;;;;;25.30;18.52;;;;;;;;;;4992578;28;20463;-78
2021/06/24 04:34:01;;;;;;;29.75;18.65;;;;;;;;;;5007617;28;20031;-77
2021/06/24 04:36:26;;;;;;;24.13;18.17;;;;;;;;;;5007147;28;20757;-76
2021/06/24 04:38:52;;;;;;;28.80;18.63;;;;;;;;;;4992190;28;20053;-76
2021/06/24 04:41:17;;;;;;;26.40;18.33;;;;;;;;;;5007495;28;20065;-76
2021/06/24 04:43:43;;;;;;;26.50;17.83;;;;;;;;;;4991855;28;20050;-78
2021/06/24 04:46:08;;;;;;;24.88;16.90;;;;;;;;;;4990877;28;20034;-77
2021/06/24 04:48:34;;;;;;;24.90;17.75;;;;;;;;;;4991956;28;20038;-77
2021/06/24 04:50:59;;;;;;;25.33;18.95;;;;;;;;;;4992621;28;20038;-77
2021/06/24 04:53:25;;;;;;;27.58;19.60;;;;;;;;;;4990979;28;20101;-77
2021/06/24 04:55:51;;;;;;;27.40;18.40;;;;;;;;;;5006856;28;20308;-78
2021/06/24 04:58:16;;;;;;;19.00;15.13;;;;;;;;;;5008180;28;20709;-78
2021/06/24 05:00:42;;;;;;;20.92;15.48;;;;;;;;;;4996449;28;20053;-76
2021/06/24 05:03:11;;;;;;;19.90;15.10;;;;;;;;;;4997525;28;20061;-77
2021/06/24 05:05:38;;;;;;;19.35;15.90;;;;;;;;;;4994756;28;20080;-78
2021/06/24 05:08:22;;;;;;;18.75;15.13;;;;;;;;;;4993916;28;20041;-77
2021/06/24 05:10:49;;;;;;;22.35;16.67;;;;;;;;;;5009139;28;20045;-78
2021/06/24 05:13:16;;;;;;;18.40;14.60;;;;;;;;;;4991763;28;20061;-77
2021/06/24 05:15:43;;;;;;;23.60;15.68;;;;;;;;;;4991328;28;20046;-78
2021/06/24 05:18:09;;;;;;;22.17;16.17;;;;;;;;;;4991604;28;20030;-77
2021/06/24 05:20:34;;;;;;;18.02;14.35;;;;;;;;;;4991428;28;20108;-78
2021/06/24 05:23:00;;;;;;;22.80;15.35;;;;;;;;;;5006609;28;20038;-78
2021/06/24 05:25:26;;;;;;;24.42;15.80;;;;;;;;;;4989686;28;20037;-77
2021/06/24 05:27:51;;;;;;;18.45;14.95;;;;;;;;;;4991420;28;20034;-78
2021/06/24 05:30:17;;;;;;;27.02;15.95;;;;;;;;;;5006615;28;20030;-78
2021/06/24 05:32:44;;;;;;;33.30;17.17;;;;;;;;;;4989969;28;20026;-77
2021/06/24 05:35:10;;;;;;;22.52;14.95;;;;;;;;;;4991237;28;20030;-77
2021/06/24 05:37:36;;;;;;;17.20;12.43;;;;;;;;;;4989189;28;20129;-77
2021/06/24 05:40:03;;;;;;;23.13;13.30;;;;;;;;;;5005921;28;20177;-79
2021/06/24 05:42:28;;;;;;;24.77;15.20;;;;;;;;;;4991022;28;20062;-77
2021/06/24 05:44:54;;;;;;;20.75;12.60;;;;;;;;;;4989401;28;20074;-79
2021/06/24 05:47:19;;;;;;;22.40;13.60;;;;;;;;;;4991357;28;20039;-78
2021/06/24 05:49:45;;;;;;;25.73;14.50;;;;;;;;;;4989468;28;20034;-78
2021/06/24 05:52:10;;;;;;;23.30;15.02;;;;;;;;;;4989274;28;20125;-77
2021/06/24 05:54:36;;;;;;;16.52;13.77;;;;;;;;;;5005390;28;20050;-77
2021/06/24 05:57:02;;;;;;;21.60;14.68;;;;;;;;;;4989238;28;20030;-77
2021/06/24 05:59:28;;;;;;;18.30;13.60;;;;;;;;;;4989047;28;20373;-78
2021/06/24 06:01:53;;;;;;;18.30;13.02;;;;;;;;;;5005701;28;20034;-76
2021/06/24 06:04:19;;;;;;;20.20;13.75;;;;;;;;;;5005963;28;20038;-78
2021/06/24 06:06:44;;;;;;;23.83;14.77;;;;;;;;;;4988948;28;20126;-77
2021/06/24 06:09:10;;;;;;;16.15;11.77;;;;;;;;;;5005150;28;20506;-77
2021/06/24 06:11:36;;;;;;;17.55;14.65;;;;;;;;;;4989967;28;20031;-78
2021/06/24 06:14:02;;;;;;;17.70;13.02;;;;;;;;;;4990347;28;20056;-76
2021/06/24 06:16:28;;;;;;;12.77;9.93;;;;;;;;;;4989734;28;20022;-76
2021/06/24 06:18:55;;;;;;;17.27;11.85;;;;;;;;;;4988730;28;20030;-78
2021/06/24 06:21:21;;;;;;;14.57;11.35;;;;;;;;;;4990243;28;20038;-78
2021/06/24 06:23:47;;;;;;;14.90;11.35;;;;;;;;;;4989389;28;20387;-78
2021/06/24 06:26:12;;;;;;;15.35;10.90;;;;;;;;;;4989770;28;20064;-78
2021/06/24 06:28:38;;;;;;;13.90;11.15;;;;;;;;;;5004885;28;20037;-78
2021/06/24 06:31:03;;;;;;;16.92;11.43;;;;;;;;;;4988787;28;20042;-76
2021/06/24 06:33:29;;;;;;;13.15;10.80;;;;;;;;;;5004476;28;20125;-77
2021/06/24 06:35:55;;;;;;;17.73;11.88;;;;;;;;;;4989636;28;20320;-77
2021/06/24 06:38:22;;;;;;;15.82;11.13;;;;;;;;;;4987713;28;20109;-77
2021/06/24 06:40:48;;;;;;;15.18;11.90;;;;;;;;;;4989623;28;20026;-78
2021/06/24 06:43:15;;;;;;;13.02;10.43;;;;;;;;;;5004029;28;20467;-79
2021/06/24 06:45:45;;;;;;;11.15;8.60;;;;;;;;;;4989409;28;20058;-78
2021/06/24 06:48:13;;;;;;;16.70;10.85;;;;;;;;;;4988937;28;20042;-77
2021/06/24 06:50:42;;;;;;;14.82;10.40;;;;;;;;;;4987619;28;20076;-77
2021/06/24 06:53:08;;;;;;;17.55;10.80;;;;;;;;;;4987599;28;20088;-78
2021/06/24 06:55:35;;;;;;;15.43;9.35;;;;;;;;;;4986333;28;20050;-79
2021/06/24 06:58:01;;;;;;;12.85;9.07;;;;;;;;;;4966591;28;20146;-77
2021/06/24 07:00:29;;;;;;;10.57;9.13;;;;;;;;;;4967847;28;20133;-78
2021/06/24 07:02:55;;;;;;;11.23;8.18;;;;;;;;;;4975154;28;20501;-80
2021/06/24 07:05:21;;;;;;;10.98;7.53;;;;;;;;;;4955922;28;20027;-77
2021/06/24 07:07:46;;;;;;;13.38;7.82;;;;;;;;;;4962136;28;20026;-78
2021/06/24 07:10:13;;;;;;;19.80;10.02;;;;;;;;;;4995436;28;20031;-80
2021/06/24 07:12:38;;;;;;;13.52;9.40;;;;;;;;;;4966300;28;20030;-78
2021/06/24 07:15:05;;;;;;;14.55;9.60;;;;;;;;;;4962266;28;20042;-76
2021/06/24 07:17:31;;;;;;;18.02;9.23;;;;;;;;;;4964636;28;20037;-77
2021/06/24 07:19:56;;;;;;;10.15;7.40;;;;;;;;;;4959289;28;20035;-79
2021/06/24 07:22:22;;;;;;;12.85;8.77;;;;;;;;;;4962318;28;20174;-76
2021/06/24 07:24:47;;;;;;;9.00;8.10;;;;;;;;;;4960158;28;20391;-78
2021/06/24 07:27:14;;;;;;;16.00;8.60;;;;;;;;;;4951681;28;20027;-75
2021/06/24 07:29:40;;;;;;;11.40;8.45;;;;;;;;;;4961335;28;20023;-77
2021/06/24 07:32:09;;;;;;;14.13;8.75;;;;;;;;;;4964485;28;20338;-77
2021/06/24 07:34:35;;;;;;;13.15;7.90;;;;;;;;;;4961831;28;20477;-78
2021/06/24 07:37:02;;;;;;;9.82;6.00;;;;;;;;;;4964578;28;20093;-78
2021/06/24 07:39:28;;;;;;;13.05;7.38;;;;;;;;;;4977997;28;20513;-78
2021/06/24 07:41:54;;;;;;;8.05;5.75;;;;;;;;;;4962566;28;20118;-77
2021/06/24 07:44:20;;;;;;;8.38;7.10;;;;;;;;;;4964660;28;20023;-76
2021/06/24 07:46:48;;;;;;;9.35;5.70;;;;;;;;;;4964660;28;20043;-78
2021/06/24 07:49:14;;;;;;;9.55;6.30;;;;;;;;;;4965148;28;20062;-74
2021/06/24 07:51:41;;;;;;;8.27;5.95;;;;;;;;;;4963367;28;20510;-77
2021/06/24 07:54:07;;;;;;;8.13;4.30;;;;;;;;;;4962404;28;20097;-77
2021/06/24 07:56:33;;;;;;;17.55;6.78;;;;;;;;;;4965365;28;20050;-78
2021/06/24 07:58:59;;;;;;;9.60;5.93;;;;;;;;;;4977724;28;20031;-77
2021/06/24 08:01:26;;;;;;;10.95;5.57;;;;;;;;;;4963477;28;20026;-75
2021/06/24 08:03:52;;;;;;;8.25;6.22;;;;;;;;;;4959427;28;20205;-76
2021/06/24 08:06:18;;;;;;;10.18;6.70;;;;;;;;;;4964507;28;20102;-77
2021/06/24 08:08:45;;;;;;;6.93;5.90;;;;;;;;;;4963881;28;20054;-76
2021/06/24 08:11:10;;;;;;;11.60;7.00;;;;;;;;;;4963546;28;20089;-77
2021/06/24 08:13:36;;;;;;;6.75;6.00;;;;;;;;;;4963728;28;20069;-74
2021/06/24 08:16:02;;;;;;;7.00;6.40;;;;;;;;;;4965691;28;20046;-75
2021/06/24 08:18:29;;;;;;;7.18;6.05;;;;;;;;;;4964519;28;20035;-78
2021/06/24 08:20:55;;;;;;;16.60;7.25;;;;;;;;;;4963039;28;20035;-76
2021/06/24 08:23:21;;;;;;;7.70;6.80;;;;;;;;;;4963840;28;20027;-76
2021/06/24 08:25:47;;;;;;;7.85;6.68;;;;;;;;;;4964126;28;20756;-76
2021/06/24 08:28:12;;;;;;;9.50;6.57;;;;;;;;;;4961315;28;20029;-76
2021/06/24 08:30:44;;;;;;;9.00;7.93;;;;;;;;;;4962769;28;20724;-76
2021/06/24 08:33:15;;;;;;;11.98;7.28;;;;;;;;;;4955846;28;20041;-79
2021/06/24 08:35:41;;;;;;;8.10;6.57;;;;;;;;;;4978730;28;20038;-78
2021/06/24 08:38:06;;;;;;;8.43;6.50;;;;;;;;;;4965587;28;20072;-76
2021/06/24 08:40:32;;;;;;;12.52;7.63;;;;;;;;;;4962468;28;20117;-77
2021/06/24 08:42:58;;;;;;;8.80;6.72;;;;;;;;;;4963160;28;20034;-75
2021/06/24 08:45:23;;;;;;;13.90;8.00;;;;;;;;;;4965094;28;20113;-76
2021/06/24 08:47:50;;;;;;;10.82;8.95;;;;;;;;;;4966165;28;20387;-76
2021/06/24 08:50:17;;;;;;;11.23;7.97;;;;;;;;;;4964463;28;20557;-76
2021/06/24 08:52:47;;;;;;;7.38;6.68;;;;;;;;;;4980698;28;20411;-76
2021/06/24 08:55:13;;;;;;;8.77;7.18;;;;;;;;;;4962080;28;20042;-75
2021/06/24 08:57:38;;;;;;;20.02;12.15;;;;;;;;;;4979715;28;20835;-76
2021/06/24 09:00:05;;;;;;;7.95;7.00;;;;;;;;;;4963376;28;20053;-76
2021/06/24 09:02:39;;;;;;;12.07;6.88;;;;;;;;;;4960445;28;20034;-76
2021/06/24 09:05:05;;;;;;;8.48;6.80;;;;;;;;;;4965746;28;20042;-75
2021/06/24 09:07:32;;;;;;;9.40;7.45;;;;;;;;;;4959776;28;20019;-76
2021/06/24 09:09:58;;;;;;;9.25;7.15;;;;;;;;;;4958358;28;20030;-75
2021/06/24 09:12:25;;;;;;;19.30;12.02;;;;;;;;;;4960764;28;20069;-77
2021/06/24 09:15:01;;;;;;;9.77;7.20;;;;;;;;;;4962877;28;20042;-76
2021/06/24 09:17:35;;;;;;;8.80;6.60;;;;;;;;;;4978634;28;20031;-75
2021/06/24 09:20:05;;;;;;;14.00;8.02;;;;;;;;;;4962479;28;20119;-76
2021/06/24 09:22:31;;;;;;;9.98;7.22;;;;;;;;;;4965328;28;20038;-76
2021/06/24 09:24:56;;;;;;;10.13;6.63;;;;;;;;;;4965049;28;20621;-76
2021/06/24 09:27:26;;;;;;;13.88;8.90;;;;;;;;;;4958756;28;20031;-77
2021/06/24 09:30:00;;;;;;;13.98;11.70;;;;;;;;;;4959618;28;20450;-76
2021/06/24 09:32:36;;;;;;;13.48;8.75;;;;;;;;;;4965112;28;20038;-77
2021/06/24 09:35:05;;;;;;;17.13;8.75;;;;;;;;;;4959563;28;20062;-76
2021/06/24 09:38:02;;;;;;;8.50;6.55;;;;;;;;;;4958761;28;20033;-76
2021/06/24 09:40:45;;;;;;;13.13;8.00;;;;;;;;;;4968662;28;20344;-76
2021/06/24 09:43:27;;;;;;;8.95;6.75;;;;;;;;;;4966795;28;20035;-75
2021/06/24 09:46:11;;;;;;;9.98;7.85;;;;;;;;;;4977846;28;20037;-78
2021/06/24 09:48:42;;;;;;;13.45;6.78;;;;;;;;;;4975363;28;20065;-76
2021/06/24 09:51:17;;;;;;;12.32;6.68;;;;;;;;;;4963371;28;20066;-77
2021/06/24 09:54:04;;;;;;;7.55;6.82;;;;;;;;;;4965043;28;20050;-78
2021/06/24 09:56:48;;;;;;;19.23;8.25;;;;;;;;;;4966877;28;20034;-77
2021/06/24 09:59:15;;;;;;;6.95;6.25;;;;;;;;;;4961305;28;20030;-80
2021/06/24 10:01:44;;;;;;;9.18;6.40;;;;;;;;;;4993871;28;20062;-76
2021/06/24 10:04:29;;;;;;;7.50;6.32;;;;;;;;;;4961057;28;20447;-76
2021/06/24 10:07:00;;;;;;;12.05;6.53;;;;;;;;;;4960521;28;20034;-78
2021/06/24 10:09:29;;;;;;;15.30;6.40;;;;;;;;;;4991504;28;20538;-76
2021/06/24 10:11:55;;;;;;;111.35;14.82;;;;;;;;;;4961622;28;20042;-76
2021/06/24 10:14:21;;;;;;;7.40;5.93;;;;;;;;;;4962073;28;20117;-75
2021/06/24 10:16:52;;;;;;;11.55;4.70;;;;;;;;;;4963004;28;20519;-76
2021/06/24 10:19:24;;;;;;;7.72;4.90;;;;;;;;;;4961646;28;20034;-78
2021/06/24 10:21:52;;;;;;;11.38;5.60;;;;;;;;;;4963898;28;20102;-79
2021/06/24 10:24:25;;;;;;;9.20;6.70;;;;;;;;;;4993780;28;20026;-76
2021/06/24 10:26:53;;;;;;;8.50;6.72;;;;;;;;;;4964031;28;20094;-77
2021/06/24 10:29:22;;;;;;;11.52;7.43;;;;;;;;;;4961567;28;20062;-77
2021/06/24 10:31:53;;;;;;;9.85;7.15;;;;;;;;;;4960364;28;20033;-77
2021/06/24 10:34:20;;;;;;;;;;;;;;;;;;4994819;28;20026;-77
2021/06/24 10:37:11;;;;;;;12.52;7.13;;;;;;;;;;4959885;28;20358;-77
2021/06/24 10:39:37;;;;;;;13.40;8.27;;;;;;;;;;4958463;28;20034;-76
2021/06/24 10:42:06;;;;;;;12.25;7.97;;;;;;;;;;4961724;28;20038;-77
2021/06/24 10:44:52;;;;;;;7.43;6.63;;;;;;;;;;4975787;28;20502;-76
2021/06/24 10:47:28;;;;;;;11.57;7.13;;;;;;;;;;4961574;28;20054;-76
2021/06/24 10:49:54;;;;;;;15.68;7.53;;;;;;;;;;4958950;28;20433;-77
2021/06/24 10:52:27;;;;;;;10.13;6.97;;;;;;;;;;4978009;28;20030;-76
2021/06/24 10:54:57;;;;;;;8.65;7.65;;;;;;;;;;4961900;28;20074;-78
2021/06/24 10:57:33;;;;;;;18.33;7.60;;;;;;;;;;4960741;28;20082;-76
2021/06/24 11:00:38;;;;;;;13.43;7.93;;;;;;;;;;4977829;28;20193;-77
2021/06/24 11:03:06;;;;;;;8.73;6.88;;;;;;;;;;4965674;28;20038;-79
2021/06/24 11:05:36;;;;;;;8.40;7.32;;;;;;;;;;4964970;28;20030;-79
2021/06/24 11:08:12;;;;;;;7.22;6.32;;;;;;;;;;4962627;28;20712;-79
2021/06/24 11:10:54;;;;;;;16.58;7.47;;;;;;;;;;4958956;28;20106;-78
2021/06/24 11:13:35;;;;;;;13.18;8.30;;;;;;;;;;4963309;28;20030;-75
2021/06/24 11:16:07;;;;;;;;;;;;;;;;;;4980508;28;20096;-80
2021/06/24 11:18:38;;;;;;;;;;;;;;;;;;4963575;28;20396;-78
2021/06/24 11:21:08;;;;;;;;;;;;;;;;;;4979641;28;19989;-77
2021/06/24 11:23:36;;;;;;;15.30;7.40;;;;;;;;;;4994466;28;19913;-79
2021/06/24 11:26:11;;;;;;;15.95;6.40;;;;;;;;;;4962251;28;20054;-79
2021/06/24 11:28:46;;;;;;;12.63;8.10;;;;;;;;;;4977115;28;20093;-77
2021/06/24 11:31:13;;;;;;;15.15;7.75;;;;;;;;;;4977524;28;20469;-78
2021/06/24 11:33:53;;;;;;;9.43;6.03;;;;;;;;;;4978016;28;20069;-79
2021/06/24 11:36:20;;;;;;;10.55;5.97;;;;;;;;;;4986326;28;20090;-78
2021/06/24 11:38:53;;;;;;;12.70;7.53;;;;;;;;;;4958535;28;20114;-77
2021/06/24 11:41:21;;;;;;;12.55;6.90;;;;;;;;;;4961328;28;20046;-79
2021/06/24 11:43:59;;;;;;;10.00;6.82;;;;;;;;;;4959643;28;20050;-77
2021/06/24 11:46:31;;;;;;;10.43;6.85;;;;;;;;;;4972201;28;20118;-75
2021/06/24 11:49:24;;;;;;;14.23;7.22;;;;;;;;;;4960935;28;20043;-77
2021/06/24 12:00:42;;;;;;;7.55;6.55;;;;;;;;;;4958012;28;20259;-78
2021/06/24 12:03:19;;;;;;;7.10;6.40;;;;;;;;;;4975116;28;20035;-78
2021/06/24 12:05:56;;;;;;;13.82;6.95;;;;;;;;;;4992066;28;20527;-78
2021/06/24 12:08:27;;;;;;;9.70;8.10;;;;;;;;;;4975464;28;20467;-77
2021/06/24 12:11:10;;;;;;;10.00;7.32;;;;;;;;;;4961656;28;20034;-80
2021/06/24 12:13:41;;;;;;;8.70;7.75;;;;;;;;;;4961234;28;20446;-80
2021/06/24 12:16:11;;;;;;;9.60;7.38;;;;;;;;;;4963650;28;20034;-79
2021/06/24 12:18:38;;;;;;;11.87;7.53;;;;;;;;;;4979161;28;20049;-77
2021/06/24 12:21:08;;;;;;;29.13;8.77;;;;;;;;;;4963644;28;20030;-79
2021/06/24 12:23:43;;;;;;;7.75;6.95;;;;;;;;;;4980832;28;20031;-79
2021/06/24 12:26:10;;;;;;;9.98;7.63;;;;;;;;;;4963143;28;20169;-79
2021/06/24 12:28:36;;;;;;;7.55;6.80;;;;;;;;;;4963263;28;20027;-79
2021/06/24 12:31:03;;;;;;;10.27;6.82;;;;;;;;;;4962146;28;20344;-78
2021/06/24 12:33:29;;;;;;;9.73;6.40;;;;;;;;;;4964943;28;20075;-76
2021/06/24 12:35:56;;;;;;;11.45;6.88;;;;;;;;;;4961996;28;20023;-78
2021/06/24 12:38:25;;;;;;;8.55;6.55;;;;;;;;;;4977539;28;20125;-78
2021/06/24 12:40:53;;;;;;;8.00;7.22;;;;;;;;;;4962205;28;20026;-80
2021/06/24 12:43:29;;;;;;;8.00;6.90;;;;;;;;;;4965887;28;20771;-79
2021/06/24 12:46:00;;;;;;;11.30;7.72;;;;;;;;;;4965800;28;20491;-77
2021/06/24 12:48:46;;;;;;;10.38;7.15;;;;;;;;;;4964374;28;20093;-78
2021/06/24 12:51:24;;;;;;;10.00;6.97;;;;;;;;;;4960827;28;20043;-78
2021/06/24 12:53:53;;;;;;;12.15;10.85;;;;;;;;;;4965114;28;20412;-80
2021/06/24 12:56:28;;;;;;;8.35;7.47;;;;;;;;;;4965659;28;20984;-81
2021/06/24 12:59:12;;;;;;;18.25;7.97;;;;;;;;;;4962847;28;20100;-76
2021/06/24 13:01:42;;;;;;;11.98;6.88;;;;;;;;;;4963441;28;20529;-78
2021/06/24 13:04:19;;;;;;;16.48;8.38;;;;;;;;;;4965247;28;20038;-79
2021/06/24 13:06:48;;;;;;;7.55;5.97;;;;;;;;;;4963607;28;20042;-76
2021/06/24 13:09:15;;;;;;;9.35;6.45;;;;;;;;;;4961961;28;20041;-76
2021/06/24 13:11:44;;;;;;;8.48;6.53;;;;;;;;;;4963991;28;20035;-74
2021/06/24 13:14:15;;;;;;;7.65;5.88;;;;;;;;;;4964404;28;20038;-75
2021/06/24 13:16:49;;;;;;;11.65;6.10;;;;;;;;;;4962694;28;20045;-76
2021/06/24 13:19:37;;;;;;;8.13;5.75;;;;;;;;;;4994884;28;20035;-78
2021/06/24 13:22:03;;;;;;;6.28;5.57;;;;;;;;;;4964794;28;20034;-81
2021/06/24 13:24:48;;;;;;;6.63;5.47;;;;;;;;;;4982899;28;20023;-79
2021/06/24 13:27:22;;;;;;;9.73;5.88;;;;;;;;;;4974348;28;20098;-78
2021/06/24 13:29:56;;;;;;;7.15;5.72;;;;;;;;;;4969230;28;20065;-77
2021/06/24 13:32:31;;;;;;;6.32;5.78;;;;;;;;;;4966896;28;20043;-77
2021/06/24 13:35:12;;;;;;;7.45;6.75;;;;;;;;;;4979107;28;20050;-78
2021/06/24 13:37:57;;;;;;;9.00;6.95;;;;;;;;;;4963948;28;20110;-78
2021/06/24 13:40:28;;;;;;;8.95;7.38;;;;;;;;;;4961152;28;20034;-76
2021/06/24 13:42:58;;;;;;;9.23;7.68;;;;;;;;;;4963696;28;20550;-79
2021/06/24 13:45:24;;;;;;;7.60;6.47;;;;;;;;;;4963954;28;20363;-76
2021/06/24 13:47:50;;;;;;;8.43;6.97;;;;;;;;;;4962842;28;20038;-78
2021/06/24 13:50:16;;;;;;;14.77;7.82;;;;;;;;;;4994022;28;20070;-79
2021/06/24 13:52:41;;;;;;;14.77;6.60;;;;;;;;;;4965779;28;20045;-79
2021/06/24 13:55:08;;;;;;;7.05;5.72;;;;;;;;;;4969294;28;20267;-77
2021/06/24 13:57:34;;;;;;;6.80;6.18;;;;;;;;;;4985666;28;20114;-77
2021/06/24 14:00:00;;;;;;;8.25;6.40;;;;;;;;;;4970097;28;20129;-79
2021/06/24 14:02:26;;;;;;;8.57;7.78;;;;;;;;;;4971070;28;20038;-77
2021/06/24 14:04:52;;;;;;;8.88;7.60;;;;;;;;;;4984953;28;20118;-77
2021/06/24 14:07:19;;;;;;;8.82;7.65;;;;;;;;;;4971174;28;20033;-80
2021/06/24 14:09:46;;;;;;;8.23;7.20;;;;;;;;;;4965817;28;20413;-79
2021/06/24 14:12:12;;;;;;;14.07;8.43;;;;;;;;;;4969926;28;20030;-78
2021/06/24 14:14:38;;;;;;;13.15;7.95;;;;;;;;;;4964059;28;20186;-78
2021/06/24 14:17:03;;;;;;;8.65;7.07;;;;;;;;;;4963414;28;20483;-80
2021/06/24 14:19:30;;;;;;;9.15;7.60;;;;;;;;;;4968890;28;20451;-80
2021/06/24 14:21:59;;;;;;;11.15;8.25;;;;;;;;;;4969700;28;20031;-77
2021/06/24 14:24:26;;;;;;;8.35;7.47;;;;;;;;;;4994393;28;20035;-79
2021/06/24 14:26:56;;;;;;;12.65;8.10;;;;;;;;;;4972985;28;20034;-79
2021/06/24 14:29:23;;;;;;;10.63;7.18;;;;;;;;;;4991662;28;20062;-79
2021/06/24 14:31:50;;;;;;;7.47;6.88;;;;;;;;;;4977451;28;20027;-79
2021/06/24 14:34:17;;;;;;;10.15;7.50;;;;;;;;;;4986844;28;20517;-79
2021/06/24 14:36:44;;;;;;;9.63;7.47;;;;;;;;;;4966938;28;20113;-80
2021/06/24 14:39:13;;;;;;;8.88;7.72;;;;;;;;;;4981752;28;20177;-79
2021/06/24 14:41:41;;;;;;;12.57;8.73;;;;;;;;;;4965332;28;20105;-79
2021/06/24 14:44:08;;;;;;;7.55;6.72;;;;;;;;;;4981468;28;20038;-76